Time;durP1;ratioP1;P1;durP2;ratioP2;P2;SDS_P1;SDS_P2;PMS_P1;PMS_P2;Temp;Humidity;BMP_temperature;BMP_pressure;BME280_temperature;BME280_humidity;BME280_pressure;Samples;Min_cycle;Max_cycle;Signal;HPM_P1;HPM_P2
2021/04/02 00:02:19;;;;;;;;;;;;;;;9.81;77.95;100248.44;115571;1204;21602;-56
2021/04/02 00:04:47;;;;;;;;;;;;;;;9.76;78.06;100252.64;115642;1204;23024;-60
2021/04/02 00:07:15;;;;;;;;;;;;;;;9.67;77.88;100252.68;115524;1204;21612;-56
2021/04/02 00:09:42;;;;;;;;;;;;;;;9.56;77.73;100255.98;115544;1204;24316;-56
2021/04/02 00:12:10;;;;;;;;;;;;;;;9.47;77.42;100249.69;115523;1204;24687;-56
2021/04/02 00:14:38;;;;;;;;;;;;;;;9.39;77.79;100259.64;115549;1204;21600;-56
2021/04/02 00:17:06;;;;;;;;;;;;;;;9.31;77.76;100255.64;115559;1204;21671;-56
2021/04/02 00:19:33;;;;;;;;;;;;;;;9.24;77.75;100258.75;115701;1204;21621;-55
2021/04/02 00:22:01;;;;;;;;;;;;;;;9.17;77.95;100265.42;115589;1204;25920;-57
2021/04/02 00:24:28;;;;;;;;;;;;;;;9.08;77.94;100278.61;115587;1204;21673;-56
2021/04/02 00:26:56;;;;;;;;;;;;;;;9.01;77.97;100267.78;115588;1204;21607;-57
2021/04/02 00:29:24;;;;;;;;;;;;;;;8.91;77.93;100267.83;115550;1204;21640;-57
2021/04/02 00:31:52;;;;;;;;;;;;;;;8.89;78.22;100266.74;115538;1204;26815;-59
2021/04/02 00:34:19;;;;;;;;;;;;;;;8.83;77.90;100271.39;115685;1203;26023;-55
2021/04/02 00:36:49;;;;;;;;;;;;;;;8.77;77.98;100271.23;115673;1204;21707;-56
2021/04/02 00:39:17;;;;;;;;;;;;;;;8.68;77.89;100262.91;115499;1205;21589;-56
2021/04/02 00:41:45;;;;;;;;;;;;;;;8.62;78.05;100273.13;115385;1204;21600;-56
2021/04/02 00:44:12;;;;;;;;;;;;;;;8.51;78.09;100267.23;115678;1203;25924;-59
2021/04/02 00:46:40;;;;;;;;;;;;;;;8.43;77.83;100271.58;115656;1204;26914;-54
2021/04/02 00:49:07;;;;;;;;;;;;;;;8.38;78.12;100274.20;115523;1204;26010;-60
2021/04/02 00:51:35;;;;;;;;;;;;;;;8.31;77.96;100280.84;115437;1204;21775;-60
2021/04/02 00:54:03;;;;;;;;;;;;;;;8.26;78.12;100283.45;115557;1204;21589;-57
2021/04/02 00:56:31;;;;;;;;;;;;;;;8.22;77.98;100280.02;115716;1200;21600;-56
2021/04/02 00:59:00;;;;;;;;;;;;;;;8.17;77.90;100281.42;115479;1204;24537;-57
2021/04/02 01:01:27;;;;;;;;;;;;;;;8.14;78.00;100279.55;115725;1204;26805;-58
2021/04/02 01:03:55;;;;;;;;;;;;;;;8.09;77.96;100280.16;115569;1204;23002;-54
2021/04/02 01:06:26;;;;;;;;;;;;;;;8.11;78.31;100278.46;115553;1203;23243;-58
2021/04/02 01:08:54;;;;;;;;;;;;;;;8.09;78.02;100272.59;115658;1204;21624;-57
2021/04/02 01:11:24;;;;;;;;;;;;;;;8.03;77.78;100276.44;115640;1204;21740;-58
2021/04/02 01:13:53;;;;;;;;;;;;;;;7.98;77.66;100294.52;115608;1204;24566;-56
2021/04/02 01:16:22;;;;;;;;;;;;;;;7.99;77.78;100289.72;115607;1204;24545;-57
2021/04/02 01:18:59;;;;;;;;;;;;;;;7.99;78.04;100286.94;115553;1204;25815;-56
2021/04/02 01:21:29;;;;;;;;;;;;;;;7.93;77.87;100297.11;115101;1205;21608;-56
2021/04/02 01:24:07;;;;;;;;;;;;;;;7.90;78.17;100296.02;115189;1203;23349;-55
2021/04/02 01:26:45;;;;;;;;;;;;;;;7.88;78.16;100301.27;115262;1204;21629;-56
2021/04/02 01:29:14;;;;;;;;;;;;;;;7.83;78.08;100301.11;115086;1205;21608;-57
2021/04/02 01:31:45;;;;;;;;;;;;;;;7.82;78.35;100310.69;115253;1204;21672;-56
2021/04/02 01:34:13;;;;;;;;;;;;;;;7.74;78.21;100309.44;115136;1205;24319;-57
2021/04/02 01:36:43;;;;;;;;;;;;;;;7.71;78.60;100305.56;115099;1204;26972;-57
2021/04/02 01:39:14;;;;;;;;;;;;;;;7.69;78.48;100313.58;115268;1204;25815;-57
2021/04/02 01:41:45;;;;;;;;;;;;;;;7.67;78.47;100302.15;115279;1204;21673;-56
2021/04/02 01:44:14;;;;;;;;;;;;;;;7.66;78.51;100314.48;115133;1204;25847;-58
2021/04/02 01:46:42;;;;;;;;;;;;;;;7.67;78.83;100306.92;115193;1205;21593;-55
2021/04/02 01:49:10;;;;;;;;;;;;;;;7.66;78.79;100302.59;115174;1205;21672;-54
2021/04/02 01:51:39;;;;;;;;;;;;;;;7.65;78.69;100318.50;114990;1204;25096;-57
2021/04/02 01:54:07;;;;;;;;;;;;;;;7.63;78.75;100314.63;114996;1204;21764;-57
2021/04/02 01:56:35;;;;;;;;;;;;;;;7.57;78.79;100314.47;115309;1202;23564;-57
2021/04/02 01:59:03;;;;;;;;;;;;;;;7.57;78.70;100320.02;115177;1205;21600;-60
2021/04/02 02:01:34;;;;;;;;;;;;;;;7.57;78.80;100327.57;115174;1204;22049;-56
2021/04/02 02:04:03;;;;;;;;;;;;;;;7.52;78.59;100325.38;115184;1204;25815;-56
2021/04/02 02:06:32;;;;;;;;;;;;;;;7.51;78.64;100324.59;115051;1204;21700;-57
2021/04/02 02:09:00;;;;;;;;;;;;;;;7.48;78.59;100327.52;115067;1204;21672;-54
2021/04/02 02:11:28;;;;;;;;;;;;;;;7.42;78.71;100335.68;115161;1204;21600;-57
2021/04/02 02:13:58;;;;;;;;;;;;;;;7.35;78.47;100333.16;115165;1205;21672;-54
2021/04/02 02:16:28;;;;;;;;;;;;;;;7.34;78.56;100349.05;115149;1200;24614;-56
2021/04/02 02:18:58;;;;;;;;;;;;;;;7.31;78.47;100347.19;115307;1204;21600;-56
2021/04/02 02:21:27;;;;;;;;;;;;;;;7.30;78.54;100351.18;115122;1205;24758;-54
2021/04/02 02:23:57;;;;;;;;;;;;;;;7.30;78.44;100353.20;115184;1205;21720;-57
2021/04/02 02:26:25;;;;;;;;;;;;;;;7.26;78.84;100360.90;115267;1204;24322;-55
2021/04/02 02:28:53;;;;;;;;;;;;;;;7.18;79.08;100357.59;115320;1202;23243;-56
2021/04/02 02:31:20;;;;;;;;;;;;;;;7.07;78.66;100360.00;115157;1204;21601;-54
2021/04/02 02:33:48;;;;;;;;;;;;;;;6.99;78.88;100361.49;115226;1196;24802;-55
2021/04/02 02:36:17;;;;;;;;;;;;;;;6.93;79.04;100371.59;115195;1204;21622;-57
2021/04/02 02:38:45;;;;;;;;;;;;;;;6.88;79.13;100366.64;115110;1204;21700;-54
2021/04/02 02:41:12;;;;;;;;;;;;;;;6.86;79.00;100374.64;115328;1205;21696;-56
2021/04/02 02:43:40;;;;;;;;;;;;;;;6.84;78.93;100373.54;115106;1205;24643;-57
2021/04/02 02:46:07;;;;;;;;;;;;;;;6.83;78.98;100378.30;115168;1204;21743;-56
2021/04/02 02:48:36;;;;;;;;;;;;;;;6.79;79.09;100374.09;115202;1196;23507;-57
2021/04/02 02:51:06;;;;;;;;;;;;;;;6.73;79.23;100378.67;115154;1204;21608;-55
2021/04/02 02:53:34;;;;;;;;;;;;;;;6.72;79.42;100377.92;115266;1204;21608;-57
2021/04/02 02:56:02;;;;;;;;;;;;;;;6.72;79.34;100380.70;115171;1204;21601;-57
2021/04/02 02:58:30;;;;;;;;;;;;;;;6.72;79.10;100379.91;115194;1205;21600;-57
2021/04/02 03:00:58;;;;;;;;;;;;;;;6.68;79.18;100382.03;115376;1204;25838;-56
2021/04/02 03:03:26;;;;;;;;;;;;;;;6.70;79.40;100376.81;115175;1204;21669;-57
2021/04/02 03:05:58;;;;;;;;;;;;;;;6.70;79.39;100383.14;115150;1205;24659;-56
2021/04/02 03:08:27;;;;;;;;;;;;;;;6.67;79.23;100388.80;115169;1199;21576;-57
2021/04/02 03:10:55;;;;;;;;;;;;;;;6.68;79.25;100382.82;115209;1204;21601;-57
2021/04/02 03:13:23;;;;;;;;;;;;;;;6.70;79.21;100393.46;115205;1204;24623;-57
2021/04/02 03:15:55;;;;;;;;;;;;;;;6.70;79.08;100390.69;115152;1204;21668;-58
2021/04/02 03:18:23;;;;;;;;;;;;;;;6.68;79.37;100391.14;115159;1205;21672;-57
2021/04/02 03:20:50;;;;;;;;;;;;;;;6.66;79.23;100395.58;115188;1204;21601;-56
2021/04/02 03:23:18;;;;;;;;;;;;;;;6.66;79.28;100390.81;115157;1204;21599;-57
2021/04/02 03:25:47;;;;;;;;;;;;;;;6.63;79.13;100399.23;115182;1205;21743;-58
2021/04/02 03:28:17;;;;;;;;;;;;;;;6.60;79.38;100400.91;115349;1205;24322;-58
2021/04/02 03:30:45;;;;;;;;;;;;;;;6.53;79.39;100404.72;115249;1205;24022;-57
2021/04/02 03:33:14;;;;;;;;;;;;;;;6.50;79.06;100402.83;115199;1204;21601;-56
2021/04/02 03:35:44;;;;;;;;;;;;;;;6.52;79.21;100411.48;115207;1205;21601;-57
2021/04/02 03:38:14;;;;;;;;;;;;;;;6.52;79.17;100405.92;115258;1204;21608;-57
2021/04/02 03:40:44;;;;;;;;;;;;;;;6.48;79.05;100407.27;115292;1204;21871;-57
2021/04/02 03:43:12;;;;;;;;;;;;;;;6.48;78.99;100410.03;115102;1204;21600;-57
2021/04/02 03:45:40;;;;;;;;;;;;;;;6.48;79.08;100407.27;115104;1203;24680;-57
2021/04/02 03:48:10;;;;;;;;;;;;;;;6.46;78.87;100415.26;115130;1205;21593;-57
2021/04/02 03:50:40;;;;;;;;;;;;;;;6.44;79.04;100412.16;115260;1204;21608;-54
2021/04/02 03:53:09;;;;;;;;;;;;;;;6.43;78.99;100418.94;115154;1197;23234;-56
2021/04/02 03:55:39;;;;;;;;;;;;;;;6.44;79.11;100424.03;115217;1204;21600;-57
2021/04/02 03:58:08;;;;;;;;;;;;;;;6.45;78.82;100413.72;115538;1204;21600;-58
2021/04/02 04:00:39;;;;;;;;;;;;;;;6.40;78.54;100420.60;115248;1205;21611;-58
2021/04/02 04:03:07;;;;;;;;;;;;;;;6.37;78.37;100415.18;115234;1203;23205;-58
2021/04/02 04:05:36;;;;;;;;;;;;;;;6.31;78.41;100411.42;115279;1199;22080;-57
2021/04/02 04:08:07;;;;;;;;;;;;;;;6.29;78.34;100417.39;115129;1205;21743;-56
2021/04/02 04:10:35;;;;;;;;;;;;;;;6.28;78.22;100417.84;115244;1204;24646;-59
2021/04/02 04:13:05;;;;;;;;;;;;;;;6.26;78.29;100417.52;115130;1204;21625;-55
2021/04/02 04:15:34;;;;;;;;;;;;;;;6.27;78.25;100422.61;115285;1203;24720;-57
2021/04/02 04:18:02;;;;;;;;;;;;;;;6.23;78.25;100421.95;115266;1204;21645;-56
2021/04/02 04:20:30;;;;;;;;;;;;;;;6.16;78.13;100413.88;115258;1204;21600;-55
2021/04/02 04:22:57;;;;;;;;;;;;;;;6.12;78.21;100404.90;115388;1204;21789;-57
2021/04/02 04:25:26;;;;;;;;;;;;;;;6.11;78.17;100416.41;115180;1205;21789;-55
2021/04/02 04:27:55;;;;;;;;;;;;;;;6.10;78.40;100425.96;115234;1204;24626;-58
2021/04/02 04:30:25;;;;;;;;;;;;;;;6.08;78.44;100425.63;115361;1204;21637;-56
2021/04/02 04:32:54;;;;;;;;;;;;;;;6.03;78.27;100415.08;115389;1204;24356;-56
2021/04/02 04:35:23;;;;;;;;;;;;;;;5.99;78.32;100429.06;115431;1204;21640;-58
2021/04/02 04:37:51;;;;;;;;;;;;;;;6.01;77.99;100431.38;115270;1204;21743;-58
2021/04/02 04:40:20;;;;;;;;;;;;;;;5.99;77.69;100433.82;115117;1204;21600;-56
2021/04/02 04:42:48;;;;;;;;;;;;;;;5.97;77.81;100437.05;115313;1204;21588;-55
2021/04/02 04:45:18;;;;;;;;;;;;;;;5.93;77.48;100435.59;115278;1204;21732;-54
2021/04/02 04:47:46;;;;;;;;;;;;;;;5.91;77.55;100438.03;115303;1204;21608;-57
2021/04/02 04:50:15;;;;;;;;;;;;;;;5.89;77.58;100435.71;115117;1204;24370;-56
2021/04/02 04:52:47;;;;;;;;;;;;;;;5.89;77.54;100437.70;115242;1205;21601;-55
2021/04/02 04:55:16;;;;;;;;;;;;;;;5.88;77.52;100438.91;115234;1204;21623;-57
2021/04/02 04:57:45;;;;;;;;;;;;;;;5.84;77.39;100441.79;115061;1204;21624;-58
2021/04/02 05:00:15;;;;;;;;;;;;;;;5.77;77.35;100441.20;115059;1205;21791;-57
2021/04/02 05:02:44;;;;;;;;;;;;;;;5.72;77.22;100448.84;115291;1205;21600;-58
2021/04/02 05:05:17;;;;;;;;;;;;;;;5.63;77.19;100447.93;115208;1203;23557;-58
2021/04/02 05:07:46;;;;;;;;;;;;;;;5.59;77.34;100455.56;115158;1204;25806;-55
2021/04/02 05:10:15;;;;;;;;;;;;;;;5.53;77.49;100457.33;115098;1205;21648;-58
2021/04/02 05:12:45;;;;;;;;;;;;;;;5.53;77.73;100460.88;115220;1204;21601;-59
2021/04/02 05:15:14;;;;;;;;;;;;;;;5.54;77.55;100467.20;115205;1204;25806;-58
2021/04/02 05:17:42;;;;;;;;;;;;;;;5.52;77.70;100475.95;115340;1204;21676;-56
2021/04/02 05:20:10;;;;;;;;;;;;;;;5.55;77.57;100469.52;115108;1204;21608;-58
2021/04/02 05:22:39;;;;;;;;;;;;;;;5.55;77.03;100477.05;115259;1204;21637;-61
2021/04/02 05:25:07;;;;;;;;;;;;;;;5.53;76.90;100476.71;115251;1202;23384;-57
2021/04/02 05:27:36;;;;;;;;;;;;;;;5.50;77.08;100480.38;115216;1204;21608;-58
2021/04/02 05:30:05;;;;;;;;;;;;;;;5.50;76.92;100483.14;115111;1205;21743;-59
2021/04/02 05:32:33;;;;;;;;;;;;;;;5.49;77.32;100493.44;115334;1204;21608;-58
2021/04/02 05:35:01;;;;;;;;;;;;;;;5.53;77.25;100498.86;115143;1204;21601;-58
2021/04/02 05:37:29;;;;;;;;;;;;;;;5.52;76.92;100498.11;115302;1203;25924;-58
2021/04/02 05:39:57;;;;;;;;;;;;;;;5.54;77.05;100495.67;115020;1204;21672;-58
2021/04/02 05:42:25;;;;;;;;;;;;;;;5.53;76.88;100501.63;115156;1204;21604;-57
2021/04/02 05:44:52;;;;;;;;;;;;;;;5.55;77.05;100494.45;115160;1204;21608;-58
2021/04/02 05:47:21;;;;;;;;;;;;;;;5.55;76.78;100502.75;115148;1204;25952;-55
2021/04/02 05:49:51;;;;;;;;;;;;;;;5.55;76.82;100508.30;115145;1205;21620;-56
2021/04/02 05:52:19;;;;;;;;;;;;;;;5.55;76.79;100508.30;115130;1204;21671;-58
2021/04/02 05:54:48;;;;;;;;;;;;;;;5.56;76.39;100512.63;115111;1204;21676;-55
2021/04/02 05:57:16;;;;;;;;;;;;;;;5.57;76.68;100516.16;115108;1204;21669;-55
2021/04/02 05:59:44;;;;;;;;;;;;;;;5.55;76.35;100515.81;115162;1204;24465;-60
2021/04/02 06:02:12;;;;;;;;;;;;;;;5.54;75.99;100514.28;115094;1204;21746;-59
2021/04/02 06:04:40;;;;;;;;;;;;;;;5.50;76.09;100517.13;115088;1205;21601;-59
2021/04/02 06:07:08;;;;;;;;;;;;;;;5.50;75.75;100516.38;115271;1204;21608;-62
2021/04/02 06:09:36;;;;;;;;;;;;;;;5.49;75.91;100521.13;115239;1204;21591;-62
2021/04/02 06:12:04;;;;;;;;;;;;;;;5.46;75.68;100515.70;115383;1204;21601;-58
2021/04/02 06:14:31;;;;;;;;;;;;;;;5.42;75.61;100521.30;115394;1204;21785;-59
2021/04/02 06:16:59;;;;;;;;;;;;;;;5.40;75.15;100525.75;115463;1204;21684;-57
2021/04/02 06:19:27;;;;;;;;;;;;;;;5.38;75.53;100530.95;115555;1204;21589;-60
2021/04/02 06:21:55;;;;;;;;;;;;;;;5.38;75.64;100528.94;115921;1200;24656;-60
2021/04/02 06:24:38;;;;;;;;;;;;;;;5.40;75.60;100529.27;115520;1204;25956;-59
2021/04/02 06:27:08;;;;;;;;;;;;;;;5.41;75.29;100533.61;115654;1204;22985;-60
2021/04/02 06:29:38;;;;;;;;;;;;;;;5.37;75.39;100524.63;115697;1204;21697;-60
2021/04/02 06:32:07;;;;;;;;;;;;;;;5.37;75.15;100527.39;115786;1204;21608;-59
2021/04/02 06:34:43;;;;;;;;;;;;;;;5.33;75.10;100532.25;115630;1204;21669;-61
2021/04/02 06:37:12;;;;;;;;;;;;;;;5.34;75.00;100536.56;115604;1204;21736;-59
2021/04/02 06:39:49;;;;;;;;;;;;;;;5.34;74.88;100541.34;115645;1204;21647;-60
2021/04/02 06:42:27;;;;;;;;;;;;;;;5.33;74.60;100543.33;115545;1204;21675;-60
2021/04/02 06:44:58;;;;;;;;;;;;;;;5.28;74.54;100552.15;115544;1197;26056;-59
2021/04/02 06:47:34;;;;;;;;;;;;;;;5.28;74.32;100545.83;115457;1204;21739;-60
2021/04/02 06:50:01;;;;;;;;;;;;;;;5.27;74.40;100542.30;115491;1204;24759;-59
2021/04/02 06:52:31;;;;;;;;;;;;;;;5.31;74.69;100547.73;115485;1204;21620;-58
2021/04/02 06:54:59;;;;;;;;;;;;;;;5.37;74.74;100555.08;115537;1203;21633;-59
2021/04/02 06:57:29;;;;;;;;;;;;;;;5.38;73.97;100559.39;115744;1204;21830;-59
2021/04/02 06:59:58;;;;;;;;;;;;;;;5.38;73.80;100558.63;115389;1204;24694;-59
2021/04/02 07:02:27;;;;;;;;;;;;;;;5.37;73.72;100563.39;115454;1204;21663;-60
2021/04/02 07:04:57;;;;;;;;;;;;;;;5.36;73.59;100559.05;116280;1204;21643;-60
2021/04/02 07:07:27;;;;;;;;;;;;;;;5.36;73.58;100559.05;115496;1204;21672;-61
2021/04/02 07:09:56;;;;;;;;;;;;;;;5.39;73.62;100571.25;115485;1204;21751;-59
2021/04/02 07:12:24;;;;;;;;;;;;;;;5.43;73.55;100569.16;115436;1204;21601;-61
2021/04/02 07:14:53;;;;;;;;;;;;;;;5.46;72.35;100577.36;115434;1203;23332;-60
2021/04/02 07:17:22;;;;;;;;;;;;;;;5.46;72.95;100563.52;115381;1200;21820;-60
2021/04/02 07:19:51;;;;;;;;;;;;;;;5.49;73.18;100570.19;115558;1204;21811;-58
2021/04/02 07:22:19;;;;;;;;;;;;;;;5.52;72.34;100569.32;115511;1204;26033;-60
2021/04/02 07:24:47;;;;;;;;;;;;;;;5.52;72.77;100570.11;115586;1204;21608;-61
2021/04/02 07:27:15;;;;;;;;;;;;;;;5.55;72.80;100577.53;115571;1203;24659;-60
2021/04/02 07:29:44;;;;;;;;;;;;;;;5.60;72.98;100573.45;115293;1204;21569;-61
2021/04/02 07:32:12;;;;;;;;;;;;;;;5.66;73.14;100564.17;115479;1204;21605;-61
2021/04/02 07:34:40;;;;;;;;;;;;;;;5.74;73.38;100568.30;115501;1203;24318;-60
2021/04/02 07:37:11;;;;;;;;;;;;;;;5.80;72.54;100564.98;115555;1204;21608;-61
2021/04/02 07:39:39;;;;;;;;;;;;;;;5.86;72.19;100577.10;115563;1202;23129;-61
2021/04/02 07:42:08;;;;;;;;;;;;;;;5.89;72.74;100581.78;115441;1205;24563;-61
2021/04/02 07:44:37;;;;;;;;;;;;;;;5.97;72.60;100575.59;115505;1204;21690;-61
2021/04/02 07:47:07;;;;;;;;;;;;;;;6.01;72.16;100575.48;115504;1204;21606;-61
2021/04/02 07:49:38;;;;;;;;;;;;;;;6.01;71.89;100569.95;115525;1204;21747;-62
2021/04/02 07:52:07;;;;;;;;;;;;;;;6.07;72.35;100582.05;115485;1204;21982;-60
2021/04/02 07:54:36;;;;;;;;;;;;;;;6.14;71.86;100579.08;115519;1204;21601;-60
2021/04/02 07:57:14;;;;;;;;;;;;;;;6.12;71.60;100581.52;115491;1203;21633;-61
2021/04/02 07:59:46;;;;;;;;;;;;;;;6.06;70.91;100583.27;115454;1202;23441;-60
2021/04/02 08:02:14;;;;;;;;;;;;;;;6.00;70.87;100580.25;115429;1204;26055;-59
2021/04/02 08:04:43;;;;;;;;;;;;;;;5.97;71.32;100581.14;115492;1204;21668;-60
2021/04/02 08:07:14;;;;;;;;;;;;;;;6.05;71.72;100578.94;115632;1204;21863;-60
2021/04/02 08:09:42;;;;;;;;;;;;;;;6.13;71.63;100583.05;115383;1204;21600;-61
2021/04/02 08:12:11;;;;;;;;;;;;;;;6.21;71.37;100574.09;115389;1205;21642;-60
2021/04/02 08:14:39;;;;;;;;;;;;;;;6.30;71.79;100578.98;115531;1204;21747;-61
2021/04/02 08:17:08;;;;;;;;;;;;;;;6.42;71.00;100583.77;115409;1204;21645;-60
2021/04/02 08:19:38;;;;;;;;;;;;;;;6.51;71.28;100595.77;115553;1204;21668;-59
2021/04/02 08:22:07;;;;;;;;;;;;;;;6.54;70.15;100583.77;115403;1204;21601;-60
2021/04/02 08:24:36;;;;;;;;;;;;;;;6.51;70.51;100584.67;115454;1204;21608;-62
2021/04/02 08:27:05;;;;;;;;;;;;;;;6.54;70.50;100575.45;115550;1204;25787;-61
2021/04/02 08:29:34;;;;;;;;;;;;;;;6.57;69.84;100579.34;115517;1197;24778;-61
2021/04/02 08:32:03;;;;;;;;;;;;;;;6.60;69.60;100591.55;115415;1204;24322;-61
2021/04/02 08:34:32;;;;;;;;;;;;;;;6.57;69.19;100582.11;115673;1204;21739;-61
2021/04/02 08:37:01;;;;;;;;;;;;;;;6.51;69.41;100579.13;115507;1204;24316;-61
2021/04/02 08:39:29;;;;;;;;;;;;;;;6.56;69.04;100580.55;115433;1204;22053;-61
2021/04/02 08:41:59;;;;;;;;;;;;;;;6.57;69.49;100573.02;115437;1204;21671;-65
2021/04/02 08:44:28;;;;;;;;;;;;;;;6.66;69.55;100573.92;115455;1204;21610;-61
2021/04/02 08:46:57;;;;;;;;;;;;;;;6.76;68.74;100566.47;115617;1204;21814;-61
2021/04/02 08:49:25;;;;;;;;;;;;;;;6.78;68.81;100562.03;115420;1204;21608;-61
2021/04/02 08:51:53;;;;;;;;;;;;;;;6.85;68.98;100561.03;115495;1204;24373;-61
2021/04/02 08:54:22;;;;;;;;;;;;;;;6.93;67.77;100563.10;115446;1204;21600;-61
2021/04/02 08:56:50;;;;;;;;;;;;;;;7.00;67.82;100557.33;115343;1205;21600;-61
2021/04/02 08:59:18;;;;;;;;;;;;;;;6.99;67.44;100555.00;115381;1204;22399;-61
2021/04/02 09:01:47;;;;;;;;;;;;;;;6.99;68.44;100553.02;115320;1204;21600;-61
2021/04/02 09:04:16;;;;;;;;;;;;;;;7.08;68.59;100555.86;115348;1204;21611;-61
2021/04/02 09:06:45;;;;;;;;;;;;;;;7.13;68.35;100555.31;115488;1204;21743;-61
2021/04/02 09:09:20;;;;;;;;;;;;;;;7.10;68.05;100549.86;115439;1204;21604;-61
2021/04/02 09:11:49;;;;;;;;;;;;;;;7.08;68.54;100555.86;115540;1204;21584;-61
2021/04/02 09:14:17;;;;;;;;;;;;;;;7.12;67.65;100553.74;115503;1203;21740;-60
2021/04/02 09:16:45;;;;;;;;;;;;;;;7.09;67.75;100557.43;115448;1204;21604;-61
2021/04/02 09:19:14;;;;;;;;;;;;;;;7.05;67.27;100550.44;115485;1204;21707;-61
2021/04/02 09:21:42;;;;;;;;;;;;;;;7.05;67.33;100554.00;115491;1204;21741;-60
2021/04/02 09:24:10;;;;;;;;;;;;;;;7.04;67.09;100549.66;115451;1204;21594;-59
2021/04/02 09:26:40;;;;;;;;;;;;;;;7.06;67.18;100547.20;115627;1204;23021;-61
2021/04/02 09:29:08;;;;;;;;;;;;;;;7.09;66.58;100538.00;115512;1204;21601;-61
2021/04/02 09:31:41;;;;;;;;;;;;;;;7.10;66.84;100536.76;115803;1204;25962;-60
2021/04/02 09:34:10;;;;;;;;;;;;;;;7.17;66.73;100546.85;115609;1205;24679;-61
2021/04/02 09:36:39;;;;;;;;;;;;;;;7.27;66.86;100540.16;115681;1204;24316;-61
2021/04/02 09:39:08;;;;;;;;;;;;;;;7.37;66.92;100541.03;115442;1204;21600;-60
2021/04/02 09:41:36;;;;;;;;;;;;;;;7.43;66.52;100528.87;115536;1204;21672;-62
2021/04/02 09:44:08;;;;;;;;;;;;;;;7.55;66.75;100530.84;115556;1204;21611;-61
2021/04/02 09:46:38;;;;;;;;;;;;;;;7.59;65.15;100544.59;115761;1197;25959;-62
2021/04/02 09:49:07;;;;;;;;;;;;;;;7.52;65.77;100526.17;115524;1204;21597;-61
2021/04/02 09:51:38;;;;;;;;;;;;;;;7.58;65.29;100531.92;115744;1204;21823;-62
2021/04/02 09:54:07;;;;;;;;;;;;;;;7.62;66.19;100527.01;115610;1200;24643;-62
2021/04/02 09:56:35;;;;;;;;;;;;;;;7.72;65.66;100532.18;115606;1204;21607;-62
2021/04/02 09:59:05;;;;;;;;;;;;;;;7.74;65.44;100528.97;115668;1204;21709;-62
2021/04/02 10:01:36;;;;;;;;;;;;;;;7.83;65.95;100531.80;115850;1204;21611;-61
2021/04/02 10:04:05;;;;;;;;;;;;;;;7.83;65.79;100534.58;115496;1204;21582;-62
2021/04/02 10:06:33;;;;;;;;;;;;;;;7.74;64.90;100526.19;115698;1204;21582;-61
2021/04/02 10:09:01;;;;;;;;;;;;;;;7.68;65.34;100520.42;115567;1204;21720;-61
2021/04/02 10:11:29;;;;;;;;;;;;;;;7.60;64.50;100523.91;115442;1200;24560;-61
2021/04/02 10:13:58;;;;;;;;;;;;;;;7.59;65.22;100514.03;115523;1204;21599;-61
2021/04/02 10:16:25;;;;;;;;;;;;;;;7.59;64.98;100525.93;115442;1203;21605;-61
2021/04/02 10:18:53;;;;;;;;;;;;;;;7.62;65.12;100511.12;115479;1204;21617;-62
2021/04/02 10:21:22;;;;;;;;;;;;;;;7.66;65.28;100514.55;115524;1203;25837;-61
2021/04/02 10:23:50;;;;;;;;;;;;;;;7.74;65.36;100512.30;115573;1204;21603;-62
2021/04/02 10:26:21;;;;;;;;;;;;;;;7.84;64.76;100511.13;115291;1205;22577;-62
2021/04/02 10:28:49;;;;;;;;;;;;;;;7.97;64.74;100507.02;115538;1204;21604;-60
2021/04/02 10:31:17;;;;;;;;;;;;;;;8.08;63.95;100509.41;115323;1204;21600;-62
2021/04/02 10:33:45;;;;;;;;;;;;;;;8.11;63.87;100506.47;115191;1204;21601;-61
2021/04/02 10:36:14;;;;;;;;;;;;;;;8.12;63.63;100505.26;115213;1204;24315;-62
2021/04/02 10:38:42;;;;;;;;;;;;;;;8.16;63.76;100507.89;115387;1204;22951;-60
2021/04/02 10:41:10;;;;;;;;;;;;;;;8.16;63.05;100502.33;115237;1204;21911;-61
2021/04/02 10:43:37;;;;;;;;;;;;;;;8.12;62.35;100510.04;115337;1204;25841;-61
2021/04/02 10:46:06;;;;;;;;;;;;;;;8.07;62.50;100502.27;115278;1204;24347;-62
2021/04/02 10:48:35;;;;;;;;;;;;;;;8.04;62.52;100500.42;115261;1204;21607;-61
2021/04/02 10:51:03;;;;;;;;;;;;;;;8.03;62.89;100496.86;115657;1204;21761;-62
2021/04/02 10:53:31;;;;;;;;;;;;;;;8.02;62.58;100497.33;115351;1204;21640;-62
2021/04/02 10:56:03;;;;;;;;;;;;;;;7.99;62.49;100498.22;115280;1204;21604;-61
2021/04/02 10:58:31;;;;;;;;;;;;;;;7.97;63.20;100493.13;115356;1204;24265;-61
2021/04/02 11:00:59;;;;;;;;;;;;;;;7.95;62.25;100498.36;115150;1204;21604;-61
2021/04/02 11:03:26;;;;;;;;;;;;;;;7.88;62.12;100493.06;115192;1200;21690;-59
2021/04/02 11:05:54;;;;;;;;;;;;;;;7.82;62.51;100483.77;115256;1204;22001;-61
2021/04/02 11:08:22;;;;;;;;;;;;;;;7.82;62.60;100489.32;115264;1202;24350;-62
2021/04/02 11:10:50;;;;;;;;;;;;;;;7.83;62.05;100490.10;115273;1204;21601;-61
2021/04/02 11:13:18;;;;;;;;;;;;;;;7.82;61.50;100480.23;115225;1200;25014;-62
2021/04/02 11:15:46;;;;;;;;;;;;;;;7.82;61.58;100474.67;115440;1204;21611;-59
2021/04/02 11:18:16;;;;;;;;;;;;;;;7.88;61.55;100470.83;115381;1204;25838;-62
2021/04/02 11:20:44;;;;;;;;;;;;;;;7.94;61.49;100469.03;115472;1204;21670;-60
2021/04/02 11:23:16;;;;;;;;;;;;;;;8.03;61.74;100466.28;115471;1204;22117;-61
2021/04/02 11:25:44;;;;;;;;;;;;;;;8.09;61.27;100447.77;115380;1204;21600;-61
2021/04/02 11:28:14;;;;;;;;;;;;;;;8.09;60.88;100453.33;115214;1204;21597;-61
2021/04/02 11:30:41;;;;;;;;;;;;;;;8.15;60.75;100456.30;115250;1204;21597;-61
2021/04/02 11:33:10;;;;;;;;;;;;;;;8.22;60.78;100453.22;115357;1204;21600;-60
2021/04/02 11:35:37;;;;;;;;;;;;;;;8.33;60.82;100453.61;115283;1202;23196;-61
2021/04/02 11:38:05;;;;;;;;;;;;;;;8.43;60.95;100446.06;115213;1203;26849;-61
2021/04/02 11:40:34;;;;;;;;;;;;;;;8.51;60.79;100450.09;115623;1204;21601;-62
2021/04/02 11:43:01;;;;;;;;;;;;;;;8.48;60.25;100437.13;115294;1204;21614;-61
2021/04/02 11:45:29;;;;;;;;;;;;;;;8.46;60.04;100437.56;115398;1203;24318;-61
2021/04/02 11:47:57;;;;;;;;;;;;;;;8.44;60.44;100428.90;115343;1204;21600;-62
2021/04/02 11:50:25;;;;;;;;;;;;;;;8.44;60.00;100434.46;115278;1204;24710;-61
2021/04/02 11:52:54;;;;;;;;;;;;;;;8.41;60.32;100435.40;115311;1204;21605;-62
2021/04/02 11:55:23;;;;;;;;;;;;;;;8.42;60.16;100430.62;115305;1200;21714;-62
2021/04/02 11:57:51;;;;;;;;;;;;;;;8.43;59.26;100427.37;115697;1204;21597;-59
2021/04/02 12:00:21;;;;;;;;;;;;;;;8.40;59.32;100433.83;115306;1204;21603;-61
2021/04/02 12:02:49;;;;;;;;;;;;;;;8.37;59.49;100426.42;115452;1204;21603;-59
2021/04/02 12:05:23;;;;;;;;;;;;;;;8.39;60.02;100423.95;115540;1197;24576;-58
2021/04/02 12:07:51;;;;;;;;;;;;;;;8.43;59.85;100415.45;115440;1204;25915;-61
2021/04/02 12:10:20;;;;;;;;;;;;;;;8.44;59.13;100420.55;115416;1204;21608;-60
2021/04/02 12:12:48;;;;;;;;;;;;;;;8.44;59.45;100406.64;115557;1204;21735;-59
2021/04/02 12:15:15;;;;;;;;;;;;;;;8.46;58.41;100395.83;115297;1204;21604;-59
2021/04/02 12:17:43;;;;;;;;;;;;;;;8.45;58.90;100391.52;115523;1204;21572;-61
2021/04/02 12:20:12;;;;;;;;;;;;;;;8.45;58.18;100391.52;115461;1203;21673;-64
2021/04/02 12:22:41;;;;;;;;;;;;;;;8.43;58.51;100393.20;115504;1204;21600;-61
2021/04/02 12:25:12;;;;;;;;;;;;;;;8.47;58.39;100386.26;115446;1204;21886;-61
2021/04/02 12:27:40;;;;;;;;;;;;;;;8.49;58.76;100371.88;115733;1204;24560;-60
2021/04/02 12:30:10;;;;;;;;;;;;;;;8.57;58.77;100371.13;115364;1202;23386;-61
2021/04/02 12:32:38;;;;;;;;;;;;;;;8.61;58.82;100370.96;115398;1204;24566;-62
2021/04/02 12:35:07;;;;;;;;;;;;;;;8.70;59.31;100362.63;115442;1204;21601;-59
2021/04/02 12:37:35;;;;;;;;;;;;;;;8.75;58.48;100357.20;115398;1203;24386;-61
2021/04/02 12:40:06;;;;;;;;;;;;;;;8.76;58.40;100360.77;115381;1204;21701;-60
2021/04/02 12:42:34;;;;;;;;;;;;;;;8.78;58.31;100364.64;115363;1203;21781;-60
2021/04/02 12:45:02;;;;;;;;;;;;;;;8.81;58.09;100362.95;115258;1204;21882;-60